Gozo/Gharb, Malta
Current Conditions -  °F | °C
As of 3:15 PM on Thursday 27 Nov 2014 (Local Time) from LMML Reporting Station
Scattered Clouds Scattered Clouds  
Wind Chill: 70°   Ceiling: Unl
Heat Index: 70°   Visibility: 6mi
Dew Point: 66°   Wind: 12mph
Humidity: 88%   Direction: 140°SE
Pressure: 29.91"   Gusts: NA
Location:  36.05°N, 14.27°E
Report Text: LMML 271315Z 14010KT 9999 FEW009 SCT013 21/19 Q1013 NOSIG
Loading
Personal Weather Stations






























Interactive Weather Map New forecast layout! Learn more

10-Day Weather Forecast

Advertisements
Track Severe Weather on mobile